Time;durP1;ratioP1;P1;durP2;ratioP2;P2;SDS_P1;SDS_P2;PMS_P1;PMS_P2;Temp;Humidity;BMP_temperature;BMP_pressure;BME280_temperature;BME280_humidity;BME280_pressure;Samples;Min_cycle;Max_cycle;Signal;HPM_P1;HPM_P2
2021/01/21 00:01:40;;;;;;;;;9.00;8.00;;;;;;;;5049485;28;8849;-67
2021/01/21 00:04:06;;;;;;;;;10.50;8.50;;;;;;;;5049297;28;8842;-67
2021/01/21 00:06:33;;;;;;;;;13.00;9.50;;;;;;;;5049307;28;8841;-68
2021/01/21 00:08:59;;;;;;;;;13.25;11.50;;;;;;;;5049746;28;8849;-67
2021/01/21 00:11:25;;;;;;;;;11.50;10.00;;;;;;;;5049052;28;11548;-67
2021/01/21 00:13:51;;;;;;;;;10.25;9.75;;;;;;;;5049311;28;8968;-67
2021/01/21 00:16:17;;;;;;;;;8.75;8.75;;;;;;;;5048942;28;8857;-68
2021/01/21 00:18:43;;;;;;;;;8.75;7.50;;;;;;;;5049358;28;11642;-68
2021/01/21 00:21:09;;;;;;;;;12.50;12.50;;;;;;;;5049460;28;8861;-69
2021/01/21 00:23:36;;;;;;;;;8.75;7.50;;;;;;;;5049493;28;8841;-68
2021/01/21 00:26:02;;;;;;;;;10.50;9.75;;;;;;;;5049606;28;8956;-68
2021/01/21 00:28:28;;;;;;;;;9.75;9.75;;;;;;;;5049302;28;12118;-68
2021/01/21 00:30:54;;;;;;;;;12.00;9.25;;;;;;;;5049398;28;11656;-69
2021/01/21 00:33:19;;;;;;;;;9.00;8.75;;;;;;;;5048880;28;8830;-68
2021/01/21 00:35:45;;;;;;;;;8.00;4.50;;;;;;;;5049370;28;8859;-68
2021/01/21 00:38:11;;;;;;;;;11.50;11.50;;;;;;;;5046021;28;13625;-68
2021/01/21 00:40:38;;;;;;;;;12.50;10.50;;;;;;;;5049468;28;8845;-68
2021/01/21 00:43:04;;;;;;;;;16.50;14.00;;;;;;;;5052851;28;9127;-68
2021/01/21 00:45:30;;;;;;;;;18.50;16.75;;;;;;;;5052696;28;11562;-67
2021/01/21 00:47:56;;;;;;;;;19.67;18.67;;;;;;;;5044672;28;8834;-68
2021/01/21 00:50:22;;;;;;;;;20.67;20.33;;;;;;;;5052757;28;8872;-67
2021/01/21 01:00:37;;;;;;;;;35.67;33.67;;;;;;;;5099424;27;13613;-68
2021/01/21 01:08:04;;;;;;;;;39.67;37.33;;;;;;;;5120011;27;13600;-67
2021/01/21 01:13:03;;;;;;;;;36.33;34.67;;;;;;;;5120198;27;13567;-67
2021/01/21 01:15:30;;;;;;;;;38.67;37.33;;;;;;;;5095754;28;8827;-67
2021/01/21 01:17:56;;;;;;;;;45.33;38.67;;;;;;;;5099184;28;9544;-67
2021/01/21 01:20:22;;;;;;;;;41.00;38.00;;;;;;;;5096353;28;8999;-67
2021/01/21 01:22:49;;;;;;;;;49.33;39.00;;;;;;;;5097940;28;8876;-67
2021/01/21 01:25:15;;;;;;;;;43.33;37.00;;;;;;;;5097469;28;9068;-67
2021/01/21 01:30:04;;;;;;;;;39.33;33.00;;;;;;;;5128303;27;13533;-66
2021/01/21 01:32:30;;;;;;;;;33.00;30.00;;;;;;;;5107798;28;8978;-67
2021/01/21 01:34:56;;;;;;;;;36.33;32.00;;;;;;;;5107676;28;8840;-67
2021/01/21 01:37:22;;;;;;;;;36.33;34.00;;;;;;;;5107489;28;8931;-67
2021/01/21 01:39:48;;;;;;;;;25.33;24.67;;;;;;;;5107835;28;8820;-67
2021/01/21 01:42:14;;;;;;;;;24.00;24.00;;;;;;;;5107427;28;8964;-67
2021/01/21 01:44:40;;;;;;;;;31.67;26.67;;;;;;;;5107670;28;8954;-67
2021/01/21 01:47:07;;;;;;;;;37.67;36.00;;;;;;;;5107486;28;8940;-67
2021/01/21 01:49:34;;;;;;;;;43.33;36.33;;;;;;;;5107235;28;8954;-68
2021/01/21 01:52:01;;;;;;;;;42.33;38.33;;;;;;;;5107452;28;8820;-68
2021/01/21 01:54:27;;;;;;;;;41.67;38.00;;;;;;;;5107298;28;8943;-67
2021/01/21 01:56:53;;;;;;;;;58.67;47.00;;;;;;;;5107533;28;8855;-67
2021/01/21 02:01:42;;;;;;;;;69.75;56.00;;;;;;;;5115000;27;13362;-68
2021/01/21 02:04:09;;;;;;;;;70.50;55.75;;;;;;;;5100788;28;8949;-68
2021/01/21 02:09:12;;;;;;;;;67.00;53.00;;;;;;;;5116259;27;13682;-67
2021/01/21 02:14:02;;;;;;;;;67.25;53.75;;;;;;;;5116802;27;13312;-67
2021/01/21 02:16:31;;;;;;;;;71.75;57.00;;;;;;;;5095748;28;8957;-67
2021/01/21 02:19:05;;;;;;;;;70.50;55.00;;;;;;;;5099169;28;8959;-67
2021/01/21 02:24:12;;;;;;;;;67.50;54.50;;;;;;;;5115976;27;13539;-67
2021/01/21 02:26:44;;;;;;;;;72.25;56.50;;;;;;;;5093869;28;8862;-67
2021/01/21 02:29:11;;;;;;;;;65.50;54.00;;;;;;;;5098280;28;8946;-67
2021/01/21 02:31:54;;;;;;;;;71.75;56.00;;;;;;;;5096508;28;8854;-67
2021/01/21 02:34:24;;;;;;;;;67.50;53.50;;;;;;;;5096611;28;8840;-67
2021/01/21 02:36:52;;;;;;;;;66.75;55.00;;;;;;;;5097856;28;9001;-67
2021/01/21 02:39:19;;;;;;;;;69.50;55.00;;;;;;;;5097149;28;8925;-67
2021/01/21 02:47:43;;;;;;;;;67.25;54.75;;;;;;;;5119616;27;13755;-67
2021/01/21 02:50:10;;;;;;;;;70.50;56.25;;;;;;;;5098372;28;8836;-67
2021/01/21 02:55:09;;;;;;;;;65.00;51.75;;;;;;;;5117220;27;14304;-68
2021/01/21 02:57:39;;;;;;;;;69.25;55.00;;;;;;;;5096013;28;8839;-68
2021/01/21 03:00:06;;;;;;;;;67.50;53.25;;;;;;;;5099467;28;8838;-68
2021/01/21 03:02:34;;;;;;;;;64.25;53.25;;;;;;;;5095969;28;9697;-68
2021/01/21 03:05:00;;;;;;;;;67.00;53.00;;;;;;;;5100225;28;8960;-68
2021/01/21 03:07:26;;;;;;;;;64.50;51.50;;;;;;;;5098574;28;9117;-67
2021/01/21 03:09:52;;;;;;;;;64.75;52.00;;;;;;;;5099433;28;8962;-67
2021/01/21 03:12:20;;;;;;;;;65.50;52.50;;;;;;;;5096981;28;8976;-68
2021/01/21 03:14:46;;;;;;;;;67.00;54.25;;;;;;;;5097234;28;8865;-68
2021/01/21 03:17:12;;;;;;;;;63.75;53.25;;;;;;;;5097612;28;8828;-67
2021/01/21 03:19:38;;;;;;;;;65.00;51.25;;;;;;;;5096049;28;8861;-67
2021/01/21 03:22:04;;;;;;;;;66.25;53.50;;;;;;;;5098950;28;8971;-67
2021/01/21 03:24:30;;;;;;;;;64.00;51.00;;;;;;;;5095414;28;8957;-67
2021/01/21 03:26:56;;;;;;;;;62.25;50.50;;;;;;;;5098716;28;8828;-67
2021/01/21 03:29:23;;;;;;;;;64.75;49.00;;;;;;;;5095875;28;8844;-67
2021/01/21 03:31:49;;;;;;;;;64.50;52.25;;;;;;;;5097673;28;8843;-67
2021/01/21 03:34:15;;;;;;;;;60.25;50.50;;;;;;;;5096843;28;8837;-67
2021/01/21 03:36:40;;;;;;;;;65.75;52.00;;;;;;;;5096339;28;9721;-67
2021/01/21 03:39:06;;;;;;;;;67.25;53.50;;;;;;;;5098253;28;8828;-67
2021/01/21 03:41:32;;;;;;;;;62.00;50.00;;;;;;;;5094986;28;8862;-67
2021/01/21 03:43:58;;;;;;;;;49.00;43.00;;;;;;;;5095127;28;8871;-68
2021/01/21 03:46:25;;;;;;;;;27.67;27.00;;;;;;;;5097715;28;8893;-67
2021/01/21 03:48:51;;;;;;;;;17.00;16.67;;;;;;;;5095786;28;8986;-67
2021/01/21 03:51:17;;;;;;;;;20.33;18.00;;;;;;;;5096684;28;8823;-67
2021/01/21 03:58:43;;;;;;;;;9.00;9.00;;;;;;;;5119952;27;13525;-67
2021/01/21 04:01:08;;;;;;;;;11.50;9.00;;;;;;;;5098085;28;11623;-67
2021/01/21 04:03:34;;;;;;;;;;;;;;;;;;5098577;28;11540;-67
2021/01/21 04:06:00;;;;;;;;;14.00;7.67;;;;;;;;5099507;28;8840;-67
2021/01/21 04:11:37;;;;;;;;;12.00;9.00;;;;;;;;5119958;27;13535;-66
2021/01/21 04:16:29;;;;;;;;;13.00;9.67;;;;;;;;5115849;27;13474;-68
2021/01/21 04:21:13;;;;;;;;;9.50;7.25;;;;;;;;5100892;27;775510;-67
2021/01/21 04:23:43;;;;;;;;;9.00;7.50;;;;;;;;5107695;28;11589;-68
2021/01/21 04:28:34;;;;;;;;;13.00;9.25;;;;;;;;5119629;27;13464;-67
2021/01/21 04:34:04;;;;;;;;;9.00;8.00;;;;;;;;5119980;27;13414;-67
2021/01/21 04:36:29;;;;;;;;;9.25;8.00;;;;;;;;5099666;28;11595;-67
2021/01/21 04:38:55;;;;;;;;;12.00;10.33;;;;;;;;5095997;28;11518;-67
2021/01/21 04:41:21;;;;;;;;;8.00;8.00;;;;;;;;5106766;28;8836;-67
2021/01/21 04:43:47;;;;;;;;;9.00;9.00;;;;;;;;5099262;28;8958;-67
2021/01/21 04:46:13;;;;;;;;;12.25;8.00;;;;;;;;5099036;28;8841;-67
2021/01/21 04:48:40;;;;;;;;;5.33;4.67;;;;;;;;5098966;28;11498;-67
2021/01/21 04:51:07;;;;;;;;;9.00;9.00;;;;;;;;5098718;28;8843;-67
2021/01/21 04:53:34;;;;;;;;;12.00;11.00;;;;;;;;5099885;28;11639;-67
2021/01/21 04:56:01;;;;;;;;;11.67;10.00;;;;;;;;5096236;28;14372;-67
2021/01/21 04:58:30;;;;;;;;;7.00;7.00;;;;;;;;5098681;28;12973;-67
2021/01/21 05:03:40;;;;;;;;;16.00;11.00;;;;;;;;5115224;27;13444;-68
2021/01/21 05:06:06;;;;;;;;;13.75;8.25;;;;;;;;5100921;28;8874;-67
2021/01/21 05:08:32;;;;;;;;;9.75;9.50;;;;;;;;5099150;28;11637;-67
2021/01/21 05:10:58;;;;;;;;;8.50;8.00;;;;;;;;5099930;28;11624;-67
2021/01/21 05:13:24;;;;;;;;;10.50;9.00;;;;;;;;5102702;28;11491;-67
2021/01/21 05:15:50;;;;;;;;;9.25;9.00;;;;;;;;5096883;28;8851;-67
2021/01/21 05:18:16;;;;;;;;;10.33;9.00;;;;;;;;5097253;28;8954;-67
2021/01/21 05:20:46;;;;;;;;;9.00;9.00;;;;;;;;5099128;28;11506;-67
2021/01/21 05:23:13;;;;;;;;;12.67;9.00;;;;;;;;5098908;28;8865;-67
2021/01/21 05:28:05;;;;;;;;;15.75;9.00;;;;;;;;5097040;27;13507;-68
2021/01/21 05:32:54;;;;;;;;;7.25;7.25;;;;;;;;5096510;27;13418;-68
2021/01/21 05:35:22;;;;;;;;;7.75;7.75;;;;;;;;5076087;28;11595;-68
2021/01/21 05:40:14;;;;;;;;;12.00;10.50;;;;;;;;5119172;27;13432;-67
2021/01/21 05:42:40;;;;;;;;;9.25;7.75;;;;;;;;5096953;28;11670;-67
2021/01/21 05:51:13;;;;;;;;;9.00;6.50;;;;;;;;5128204;27;10290;-68
2021/01/21 05:53:39;;;;;;;;;7.75;6.75;;;;;;;;5107692;28;11513;-67
2021/01/21 05:56:08;;;;;;;;;9.25;8.75;;;;;;;;5107635;28;11554;-66
2021/01/21 06:01:00;;;;;;;;;8.25;7.00;;;;;;;;5113163;27;13228;-67
2021/01/21 06:03:27;;;;;;;;;7.75;7.75;;;;;;;;5099157;28;11615;-67
2021/01/21 06:05:53;;;;;;;;;9.00;7.00;;;;;;;;5096468;28;12364;-68
2021/01/21 06:08:20;;;;;;;;;8.00;7.50;;;;;;;;5097800;28;11516;-67
2021/01/21 06:13:16;;;;;;;;;11.00;9.00;;;;;;;;5118364;27;13469;-67
2021/01/21 06:15:42;;;;;;;;;10.00;8.00;;;;;;;;5097234;28;11524;-66
2021/01/21 06:18:08;;;;;;;;;6.75;6.75;;;;;;;;5098425;28;12235;-67
2021/01/21 06:20:34;;;;;;;;;9.00;8.00;;;;;;;;5095875;28;8858;-67
2021/01/21 06:25:35;;;;;;;;;13.50;8.00;;;;;;;;5119651;27;13448;-68
2021/01/21 06:28:02;;;;;;;;;7.75;6.75;;;;;;;;5099466;28;12358;-67
2021/01/21 06:30:28;;;;;;;;;11.25;9.00;;;;;;;;5095277;28;11661;-67
2021/01/21 06:32:59;;;;;;;;;7.00;6.50;;;;;;;;5096649;28;11601;-66
2021/01/21 06:35:28;;;;;;;;;14.00;11.50;;;;;;;;5095485;28;11619;-66
2021/01/21 06:40:22;;;;;;;;;7.25;6.25;;;;;;;;5115098;27;13446;-66
2021/01/21 06:43:00;;;;;;;;;8.25;8.25;;;;;;;;5094357;28;11485;-67
2021/01/21 06:45:27;;;;;;;;;9.00;9.00;;;;;;;;5097545;28;11637;-66
2021/01/21 06:47:54;;;;;;;;;7.50;6.50;;;;;;;;5097374;28;11572;-67
2021/01/21 06:50:20;;;;;;;;;8.75;8.25;;;;;;;;5101375;28;11625;-66
2021/01/21 06:52:46;;;;;;;;;9.25;9.25;;;;;;;;5097630;28;11609;-67
2021/01/21 06:55:13;;;;;;;;;10.00;10.00;;;;;;;;5094811;28;11572;-68
2021/01/21 06:57:46;;;;;;;;;9.75;9.25;;;;;;;;5096450;28;11750;-67
2021/01/21 07:00:13;;;;;;;;;8.75;8.75;;;;;;;;5096703;28;11596;-67
2021/01/21 07:02:43;;;;;;;;;12.00;8.75;;;;;;;;5094905;28;11608;-67
2021/01/21 07:05:10;;;;;;;;;10.00;9.00;;;;;;;;5095802;28;11634;-67
2021/01/21 07:07:55;;;;;;;;;9.00;9.00;;;;;;;;5094513;28;11594;-67
2021/01/21 07:10:22;;;;;;;;;12.00;10.33;;;;;;;;5096493;28;11495;-79
2021/01/21 07:12:49;;;;;;;;;10.50;9.25;;;;;;;;5098045;28;11654;-69
2021/01/21 07:15:15;;;;;;;;;10.50;8.00;;;;;;;;5096654;28;11572;-68
2021/01/21 07:17:41;;;;;;;;;14.50;10.25;;;;;;;;5103956;28;11469;-67
2021/01/21 07:20:07;;;;;;;;;12.75;9.00;;;;;;;;5101843;28;8840;-66
2021/01/21 07:22:33;;;;;;;;;11.75;8.50;;;;;;;;5097542;28;11695;-67
2021/01/21 07:25:00;;;;;;;;;8.00;6.75;;;;;;;;5098329;28;11494;-67
2021/01/21 07:27:27;;;;;;;;;10.00;7.75;;;;;;;;5102650;28;8817;-67
2021/01/21 07:30:08;;;;;;;;;11.25;10.50;;;;;;;;5098285;28;11492;-65
2021/01/21 07:32:35;;;;;;;;;12.25;8.75;;;;;;;;5092273;28;11631;-66
2021/01/21 07:35:01;;;;;;;;;14.50;11.25;;;;;;;;5102374;28;11677;-68
2021/01/21 07:37:28;;;;;;;;;9.75;9.75;;;;;;;;5098170;28;11603;-68
2021/01/21 07:39:56;;;;;;;;;13.00;11.75;;;;;;;;5097916;28;8986;-68
2021/01/21 07:42:42;;;;;;;;;12.50;10.00;;;;;;;;5102158;28;11601;-68
2021/01/21 07:45:13;;;;;;;;;13.25;9.00;;;;;;;;5095070;28;11715;-67
2021/01/21 07:47:41;;;;;;;;;10.00;9.00;;;;;;;;5098129;28;11700;-66
2021/01/21 07:50:26;;;;;;;;;12.00;9.00;;;;;;;;5092978;28;11512;-66
2021/01/21 07:52:52;;;;;;;;;5.50;5.50;;;;;;;;5088370;28;11510;-67
2021/01/21 07:55:24;;;;;;;;;9.25;8.00;;;;;;;;5086146;28;11607;-68
2021/01/21 07:57:50;;;;;;;;;10.00;10.00;;;;;;;;5080949;28;11620;-69
2021/01/21 08:00:16;;;;;;;;;10.75;9.25;;;;;;;;5079798;28;11529;-67
2021/01/21 08:02:43;;;;;;;;;7.25;7.25;;;;;;;;5080542;28;8946;-67
2021/01/21 08:05:10;;;;;;;;;10.50;9.25;;;;;;;;5081169;28;11670;-67
2021/01/21 08:07:45;;;;;;;;;10.00;9.25;;;;;;;;5080683;28;11525;-67
2021/01/21 08:10:12;;;;;;;;;8.25;5.50;;;;;;;;5077522;28;11532;-67
2021/01/21 08:12:38;;;;;;;;;10.25;7.00;;;;;;;;5078889;28;11634;-67
2021/01/21 08:15:05;;;;;;;;;9.00;8.00;;;;;;;;5084110;28;11638;-67
2021/01/21 08:17:31;;;;;;;;;7.50;7.50;;;;;;;;5083859;28;11482;-67
2021/01/21 08:19:58;;;;;;;;;11.50;7.00;;;;;;;;5080268;28;11631;-68
2021/01/21 08:22:23;;;;;;;;;7.75;7.00;;;;;;;;5083038;28;11493;-68
2021/01/21 08:24:59;;;;;;;;;9.25;7.50;;;;;;;;5085937;28;11525;-65
2021/01/21 08:27:39;;;;;;;;;8.75;7.00;;;;;;;;5080176;28;8841;-66
2021/01/21 08:30:13;;;;;;;;;16.50;12.00;;;;;;;;5082246;28;11588;-65
2021/01/21 08:32:40;;;;;;;;;9.75;8.50;;;;;;;;5080639;28;11517;-66
2021/01/21 08:35:09;;;;;;;;;10.75;8.75;;;;;;;;5080983;28;11627;-65
2021/01/21 08:37:37;;;;;;;;;8.25;8.25;;;;;;;;5087485;28;11512;-66
2021/01/21 08:40:04;;;;;;;;;9.25;8.00;;;;;;;;5080031;28;11473;-66
2021/01/21 08:42:30;;;;;;;;;12.00;9.00;;;;;;;;5083009;28;11502;-66
2021/01/21 08:44:56;;;;;;;;;9.50;6.00;;;;;;;;5081883;28;11483;-66
2021/01/21 08:47:21;;;;;;;;;8.25;5.00;;;;;;;;5081671;28;8876;-65
2021/01/21 08:52:25;;;;;;;;;9.25;7.25;;;;;;;;5111486;27;13499;-68
2021/01/21 08:54:52;;;;;;;;;6.25;6.25;;;;;;;;5096524;28;11523;-69
2021/01/21 08:57:20;;;;;;;;;9.25;8.00;;;;;;;;5097825;28;11487;-70
2021/01/21 08:59:46;;;;;;;;;9.50;7.75;;;;;;;;5097504;28;11491;-70
2021/01/21 09:02:12;;;;;;;;;10.75;9.75;;;;;;;;5095361;28;11641;-70
2021/01/21 09:04:38;;;;;;;;;9.00;7.00;;;;;;;;5096618;28;12280;-70
2021/01/21 09:07:05;;;;;;;;;10.25;8.75;;;;;;;;5099012;28;8836;-69
2021/01/21 09:09:33;;;;;;;;;10.00;9.00;;;;;;;;5095822;28;11562;-71
2021/01/21 09:12:13;;;;;;;;;10.50;7.75;;;;;;;;5095357;28;11499;-69
2021/01/21 09:14:39;;;;;;;;;13.00;9.00;;;;;;;;5092660;28;11545;-70
2021/01/21 09:17:12;;;;;;;;;16.50;9.75;;;;;;;;5093315;28;11584;-70
2021/01/21 09:19:38;;;;;;;;;8.50;7.25;;;;;;;;5090512;28;8985;-70
2021/01/21 09:22:06;;;;;;;;;10.00;8.50;;;;;;;;5093076;28;11637;-69
2021/01/21 09:24:33;;;;;;;;;8.75;8.75;;;;;;;;5095320;28;11626;-70
2021/01/21 09:27:09;;;;;;;;;9.25;9.25;;;;;;;;5099180;28;11762;-70
2021/01/21 09:29:48;;;;;;;;;10.00;8.00;;;;;;;;5093102;28;11534;-70
2021/01/21 09:32:14;;;;;;;;;8.25;8.00;;;;;;;;5096460;28;11599;-69
2021/01/21 09:34:50;;;;;;;;;12.25;10.00;;;;;;;;5096607;28;11613;-70
2021/01/21 09:37:16;;;;;;;;;10.75;10.00;;;;;;;;5096311;28;11542;-69
2021/01/21 09:39:43;;;;;;;;;9.50;8.00;;;;;;;;5096670;28;12258;-69
2021/01/21 09:42:09;;;;;;;;;9.25;6.50;;;;;;;;5097607;28;8955;-69
2021/01/21 09:44:35;;;;;;;;;9.00;7.50;;;;;;;;5095459;28;11559;-70
2021/01/21 09:47:01;;;;;;;;;13.00;9.50;;;;;;;;5098589;28;8832;-70
2021/01/21 09:49:26;;;;;;;;;8.50;5.75;;;;;;;;5094676;28;8831;-70
2021/01/21 09:51:52;;;;;;;;;8.50;8.50;;;;;;;;5091710;28;8853;-70
2021/01/21 09:54:18;;;;;;;;;11.50;9.00;;;;;;;;5092877;28;8855;-70
2021/01/21 09:56:45;;;;;;;;;10.25;9.75;;;;;;;;5097622;28;8914;-71
2021/01/21 09:59:11;;;;;;;;;8.25;6.50;;;;;;;;5096455;28;8851;-71
2021/01/21 10:01:37;;;;;;;;;4.50;3.75;;;;;;;;5090435;28;11613;-70
2021/01/21 10:04:03;;;;;;;;;12.25;10.75;;;;;;;;5082989;28;11609;-71
2021/01/21 10:06:29;;;;;;;;;13.25;10.00;;;;;;;;5081658;28;8959;-71
2021/01/21 10:08:55;;;;;;;;;10.50;9.75;;;;;;;;5083214;28;11509;-69
2021/01/21 10:11:21;;;;;;;;;10.00;9.75;;;;;;;;5082006;28;8939;-69
2021/01/21 10:13:48;;;;;;;;;7.75;7.75;;;;;;;;5078573;28;8844;-70
2021/01/21 10:16:14;;;;;;;;;12.00;10.00;;;;;;;;5083582;28;8843;-70
2021/01/21 10:18:40;;;;;;;;;13.50;11.50;;;;;;;;5084154;28;11817;-71
2021/01/21 10:21:06;;;;;;;;;9.25;9.25;;;;;;;;5080058;28;9565;-69
2021/01/21 10:23:32;;;;;;;;;10.75;9.00;;;;;;;;5085986;28;8844;-69
2021/01/21 10:25:58;;;;;;;;;9.50;8.50;;;;;;;;5082313;28;8848;-70
2021/01/21 10:28:24;;;;;;;;;13.00;8.50;;;;;;;;5081132;28;11512;-69
2021/01/21 10:30:51;;;;;;;;;8.00;8.00;;;;;;;;5082915;28;8825;-69
2021/01/21 10:33:16;;;;;;;;;9.75;9.00;;;;;;;;5081357;28;8899;-70
2021/01/21 10:35:42;;;;;;;;;10.50;10.25;;;;;;;;5081146;28;11617;-68
2021/01/21 10:38:08;;;;;;;;;10.00;9.00;;;;;;;;5083883;28;8856;-69
2021/01/21 10:40:35;;;;;;;;;8.00;8.00;;;;;;;;5083410;28;11581;-69
2021/01/21 10:43:00;;;;;;;;;12.50;9.00;;;;;;;;5084998;28;11614;-69
2021/01/21 10:45:26;;;;;;;;;12.00;9.00;;;;;;;;5080215;28;11555;-68
2021/01/21 10:47:53;;;;;;;;;8.75;8.00;;;;;;;;5078403;28;8852;-68
2021/01/21 10:50:19;;;;;;;;;10.25;10.00;;;;;;;;5073776;28;8946;-68
2021/01/21 10:52:45;;;;;;;;;9.50;9.00;;;;;;;;5073800;28;11676;-68
2021/01/21 10:55:12;;;;;;;;;12.25;11.00;;;;;;;;5082942;28;8836;-68
2021/01/21 10:57:38;;;;;;;;;9.75;9.00;;;;;;;;5075373;28;8973;-67
2021/01/21 11:00:04;;;;;;;;;7.50;7.25;;;;;;;;5080422;28;11597;-67
2021/01/21 11:02:30;;;;;;;;;11.50;9.75;;;;;;;;5080294;28;8955;-67
2021/01/21 11:04:57;;;;;;;;;10.00;10.00;;;;;;;;5078608;28;11557;-67
2021/01/21 11:07:23;;;;;;;;;7.50;7.25;;;;;;;;5078052;28;8940;-68
2021/01/21 11:09:49;;;;;;;;;12.25;11.50;;;;;;;;5079577;28;11058;-67
2021/01/21 11:12:16;;;;;;;;;18.50;16.50;;;;;;;;5077538;28;9543;-68
2021/01/21 11:14:42;;;;;;;;;9.75;9.75;;;;;;;;5078463;28;8953;-67
2021/01/21 11:17:08;;;;;;;;;9.00;8.50;;;;;;;;5081566;28;11490;-66
2021/01/21 11:19:34;;;;;;;;;9.50;7.00;;;;;;;;5080331;28;11619;-66
2021/01/21 11:22:01;;;;;;;;;11.50;10.75;;;;;;;;5080549;28;8856;-65
2021/01/21 11:24:27;;;;;;;;;9.50;9.50;;;;;;;;5078509;28;8959;-66
2021/01/21 11:27:45;;;;;;;;;7.00;7.00;;;;;;;;5112333;27;13437;-66
2021/01/21 11:30:12;;;;;;;;;13.50;9.00;;;;;;;;5086152;28;12414;-65
2021/01/21 11:32:38;;;;;;;;;12.00;8.50;;;;;;;;5094316;28;12416;-67
2021/01/21 11:35:05;;;;;;;;;10.00;9.50;;;;;;;;5082579;28;11482;-67
2021/01/21 11:37:31;;;;;;;;;10.50;10.00;;;;;;;;5077351;28;11655;-66
2021/01/21 11:39:56;;;;;;;;;9.00;7.75;;;;;;;;5076762;28;11526;-66
2021/01/21 11:42:23;;;;;;;;;11.50;8.25;;;;;;;;5078987;28;9746;-67
2021/01/21 11:44:49;;;;;;;;;12.50;10.00;;;;;;;;5092284;28;8969;-66
2021/01/21 11:47:16;;;;;;;;;13.00;11.25;;;;;;;;5078458;28;11654;-67
2021/01/21 11:49:42;;;;;;;;;10.00;7.00;;;;;;;;5088205;28;11652;-67
2021/01/21 11:52:08;;;;;;;;;11.50;7.00;;;;;;;;5088806;28;11502;-68
2021/01/21 11:54:34;;;;;;;;;10.75;10.25;;;;;;;;5094150;28;8922;-66
2021/01/21 11:56:59;;;;;;;;;9.25;8.50;;;;;;;;5095939;28;11634;-67
2021/01/21 11:59:26;;;;;;;;;6.25;6.25;;;;;;;;5089190;28;8842;-67
2021/01/21 12:01:52;;;;;;;;;7.00;6.50;;;;;;;;5090936;28;8959;-67
2021/01/21 12:04:18;;;;;;;;;10.00;7.50;;;;;;;;5090835;28;11542;-66
2021/01/21 12:06:44;;;;;;;;;8.75;7.50;;;;;;;;5080722;28;11513;-66
2021/01/21 12:09:10;;;;;;;;;11.50;10.00;;;;;;;;5077528;28;8851;-66
2021/01/21 12:11:38;;;;;;;;;9.25;7.25;;;;;;;;5090087;28;8878;-69
2021/01/21 12:14:04;;;;;;;;;8.00;8.00;;;;;;;;5077774;28;11483;-69
2021/01/21 12:16:30;;;;;;;;;8.75;8.25;;;;;;;;5077751;28;12384;-69
2021/01/21 12:18:57;;;;;;;;;7.50;7.50;;;;;;;;5075139;28;11562;-70
2021/01/21 12:21:23;;;;;;;;;15.00;14.25;;;;;;;;5078358;28;8957;-70
2021/01/21 12:23:49;;;;;;;;;8.50;7.00;;;;;;;;5074726;28;11714;-69
2021/01/21 12:26:15;;;;;;;;;15.25;12.00;;;;;;;;5077144;28;9811;-69
2021/01/21 12:28:41;;;;;;;;;11.00;8.00;;;;;;;;5075867;28;8830;-69
2021/01/21 12:31:07;;;;;;;;;16.00;13.00;;;;;;;;5076336;28;9058;-69
2021/01/21 12:33:33;;;;;;;;;14.50;13.75;;;;;;;;5076781;28;8961;-70
2021/01/21 12:36:33;;;;;;;;;13.25;11.00;;;;;;;;5116500;27;13479;-69
2021/01/21 12:38:59;;;;;;;;;11.75;11.00;;;;;;;;5098816;28;11508;-70
2021/01/21 12:41:25;;;;;;;;;12.00;9.25;;;;;;;;5096191;28;11530;-70
2021/01/21 12:43:51;;;;;;;;;10.50;9.25;;;;;;;;5095887;28;8843;-70
2021/01/21 12:46:17;;;;;;;;;11.00;11.00;;;;;;;;5098962;28;11519;-71
2021/01/21 12:48:47;;;;;;;;;17.00;12.75;;;;;;;;5096746;28;8883;-70
2021/01/21 12:51:13;;;;;;;;;11.00;11.00;;;;;;;;5096105;28;8928;-68
2021/01/21 12:53:39;;;;;;;;;14.50;12.25;;;;;;;;5095679;28;11491;-69
2021/01/21 12:56:05;;;;;;;;;9.50;7.50;;;;;;;;5097486;28;11637;-69
2021/01/21 12:58:31;;;;;;;;;10.00;8.25;;;;;;;;5096222;28;11540;-69
2021/01/21 13:00:57;;;;;;;;;10.25;7.00;;;;;;;;5093116;28;11540;-69
2021/01/21 13:03:23;;;;;;;;;4.25;3.00;;;;;;;;5097742;28;8894;-69
2021/01/21 13:05:49;;;;;;;;;5.00;4.00;;;;;;;;5095626;28;9665;-69
2021/01/21 13:08:15;;;;;;;;;9.00;6.00;;;;;;;;5096595;28;8983;-69
2021/01/21 13:10:42;;;;;;;;;7.00;5.25;;;;;;;;5096880;28;8912;-69
2021/01/21 13:13:08;;;;;;;;;12.75;6.00;;;;;;;;5096537;28;8828;-68
2021/01/21 13:15:33;;;;;;;;;9.00;4.00;;;;;;;;5096328;28;11521;-69
2021/01/21 13:17:59;;;;;;;;;6.25;5.50;;;;;;;;5097777;28;9695;-69
2021/01/21 13:20:25;;;;;;;;;7.50;6.25;;;;;;;;5095305;28;9005;-69
2021/01/21 13:22:51;;;;;;;;;5.50;5.00;;;;;;;;5095266;28;8843;-68
2021/01/21 13:25:17;;;;;;;;;5.75;4.50;;;;;;;;5096261;28;8973;-68
2021/01/21 13:27:45;;;;;;;;;7.50;6.00;;;;;;;;5092904;28;8847;-68
2021/01/21 13:30:11;;;;;;;;;5.75;4.00;;;;;;;;5095515;28;8944;-69
2021/01/21 13:32:37;;;;;;;;;5.00;4.25;;;;;;;;5092121;28;11515;-68
2021/01/21 13:35:03;;;;;;;;;6.00;5.50;;;;;;;;5097369;28;11487;-69
2021/01/21 13:37:29;;;;;;;;;8.50;5.00;;;;;;;;5095886;28;8854;-68
2021/01/21 13:39:55;;;;;;;;;10.75;4.50;;;;;;;;5095099;28;11488;-69
2021/01/21 13:42:22;;;;;;;;;6.50;5.50;;;;;;;;5095702;28;8927;-67
2021/01/21 13:44:49;;;;;;;;;8.00;6.25;;;;;;;;5099345;28;8855;-70
2021/01/21 13:47:15;;;;;;;;;6.25;6.00;;;;;;;;5084977;28;11576;-69
2021/01/21 13:49:40;;;;;;;;;11.25;9.00;;;;;;;;5084638;28;11497;-70
2021/01/21 13:52:06;;;;;;;;;5.00;5.00;;;;;;;;5080993;28;11658;-69
2021/01/21 13:54:32;;;;;;;;;10.75;7.00;;;;;;;;5082117;28;8850;-69
2021/01/21 13:56:58;;;;;;;;;7.75;7.25;;;;;;;;5084259;28;8833;-69
2021/01/21 13:59:24;;;;;;;;;9.75;8.00;;;;;;;;5083534;28;8840;-69
2021/01/21 14:01:51;;;;;;;;;11.00;9.75;;;;;;;;5082137;28;8844;-69
2021/01/21 14:04:17;;;;;;;;;6.00;6.00;;;;;;;;5081359;28;8881;-69
2021/01/21 14:06:43;;;;;;;;;6.00;4.50;;;;;;;;5082287;28;11499;-69
2021/01/21 14:09:09;;;;;;;;;8.50;8.50;;;;;;;;5083772;28;8848;-69
2021/01/21 14:11:35;;;;;;;;;7.75;6.00;;;;;;;;5082648;28;11542;-68
2021/01/21 14:14:01;;;;;;;;;12.50;9.50;;;;;;;;5080423;28;9640;-68
2021/01/21 14:16:27;;;;;;;;;7.25;6.00;;;;;;;;5081369;28;8851;-69
2021/01/21 14:18:53;;;;;;;;;12.50;8.75;;;;;;;;5082768;28;8924;-69
2021/01/21 14:21:19;;;;;;;;;7.50;6.75;;;;;;;;5082987;28;8870;-68
2021/01/21 14:23:45;;;;;;;;;7.25;6.50;;;;;;;;5081433;28;11626;-69
2021/01/21 14:26:11;;;;;;;;;13.00;9.25;;;;;;;;5083138;28;8836;-68
2021/01/21 14:28:37;;;;;;;;;9.00;8.75;;;;;;;;5081975;28;8862;-68
2021/01/21 14:31:03;;;;;;;;;13.00;9.00;;;;;;;;5080456;28;8855;-68
2021/01/21 14:33:29;;;;;;;;;10.25;8.00;;;;;;;;5080813;28;8855;-68
2021/01/21 14:35:56;;;;;;;;;10.00;10.00;;;;;;;;5082417;28;8867;-68
2021/01/21 14:38:22;;;;;;;;;10.25;9.50;;;;;;;;5082022;28;9009;-68
2021/01/21 14:40:48;;;;;;;;;11.00;10.75;;;;;;;;5081417;28;11548;-68
2021/01/21 14:43:14;;;;;;;;;16.25;11.25;;;;;;;;5082512;28;8901;-69
2021/01/21 14:45:39;;;;;;;;;12.25;11.75;;;;;;;;5080826;28;8850;-67
2021/01/21 14:48:06;;;;;;;;;8.00;8.00;;;;;;;;5079742;28;8862;-69
2021/01/21 14:50:32;;;;;;;;;13.50;10.50;;;;;;;;5080155;28;8953;-69
2021/01/21 14:52:59;;;;;;;;;12.25;10.50;;;;;;;;5082585;28;11523;-68
2021/01/21 14:55:25;;;;;;;;;14.00;10.75;;;;;;;;5080710;28;8839;-70
2021/01/21 14:57:51;;;;;;;;;12.00;11.00;;;;;;;;5078234;28;11671;-70
2021/01/21 15:00:17;;;;;;;;;10.00;8.50;;;;;;;;5082682;28;11678;-68
2021/01/21 15:02:44;;;;;;;;;11.50;10.00;;;;;;;;5079856;28;11610;-68
2021/01/21 15:05:10;;;;;;;;;12.25;9.00;;;;;;;;5081736;28;11602;-69
2021/01/21 15:07:36;;;;;;;;;11.25;10.00;;;;;;;;5079374;28;11674;-69
2021/01/21 15:10:05;;;;;;;;;11.25;8.00;;;;;;;;5080134;28;11652;-70
2021/01/21 15:12:31;;;;;;;;;9.00;6.00;;;;;;;;5078490;28;11546;-70
2021/01/21 15:14:59;;;;;;;;;10.75;9.00;;;;;;;;5080495;28;11480;-70
2021/01/21 15:17:25;;;;;;;;;11.00;10.00;;;;;;;;5078480;28;8874;-70
2021/01/21 15:19:51;;;;;;;;;9.00;6.75;;;;;;;;5080299;28;11544;-70
2021/01/21 15:22:17;;;;;;;;;11.50;10.00;;;;;;;;5079957;28;11517;-70
2021/01/21 15:24:44;;;;;;;;;11.75;11.75;;;;;;;;5078615;28;11622;-70
2021/01/21 15:27:11;;;;;;;;;14.25;11.00;;;;;;;;5079659;28;8839;-70
2021/01/21 15:29:37;;;;;;;;;13.50;11.25;;;;;;;;5077150;28;11529;-69
2021/01/21 15:32:03;;;;;;;;;11.50;11.00;;;;;;;;5080521;28;11579;-70
2021/01/21 15:34:29;;;;;;;;;12.25;11.75;;;;;;;;5075804;28;8829;-69
2021/01/21 15:36:55;;;;;;;;;13.50;11.25;;;;;;;;5080174;28;11513;-69
2021/01/21 15:39:21;;;;;;;;;13.75;12.00;;;;;;;;5077841;28;8858;-70
2021/01/21 15:41:47;;;;;;;;;12.75;11.75;;;;;;;;5080183;28;8840;-69
2021/01/21 15:44:14;;;;;;;;;12.00;7.00;;;;;;;;5078212;28;8904;-69
2021/01/21 15:46:39;;;;;;;;;14.50;11.75;;;;;;;;5078977;28;8959;-69
2021/01/21 15:49:07;;;;;;;;;13.25;12.00;;;;;;;;5078975;28;11577;-69
2021/01/21 15:51:33;;;;;;;;;17.00;13.50;;;;;;;;5078217;28;8833;-69
2021/01/21 15:53:59;;;;;;;;;14.00;11.25;;;;;;;;5078318;28;11660;-70
2021/01/21 15:56:25;;;;;;;;;16.50;12.75;;;;;;;;5080377;28;8855;-69
2021/01/21 15:58:51;;;;;;;;;16.00;14.75;;;;;;;;5076504;28;11568;-70